Latest Coastal Weather Observations for Gladstone

IDQ60701

Issued at 11:51 am EST Sunday 4 December 2016 (issued every 10 minutes, with the page automatically refreshed every 10 minutes)

About coastal observations | Map of coastal stations | Coastal observations for QLD | Marine services | Other Formats
Station Details ID: 039123 Name: GLADSTONE RADAR Lat: -23.86 Lon: 151.26 Height: 74.5 m
Data from the previous 72 hours. | See also: Recent months at Gladstone
Date/Time
EST
Temp
°C
Wind Pressure Rain since
9am
mm
Weather Cloud Vis
km
Sea
Height
m
Swell
Dir  Spd
kts
Gust
kts
hPa Trend Height
m
Period
s
Dir
04/11:30am 32.2 NE 10 16 1015.5 - 0.0 - - - - - - -
04/11:00am 32.8 NE 9 17 1015.7 - 0.0 - - - - - - -
04/10:30am 32.3 NE 11 16 1016.2 - 0.0 - - - - - - -
04/10:00am 31.1 NE 10 16 1016.1 - 0.0 - - - - - - -
04/09:30am 31.2 NE 9 13 1016.3 - 0.0 - - - - - - -
04/09:00am 29.3 NE 9 13 1016.3 - 0.4 - - - - - - -
04/08:30am 30.9 NE 6 9 1016.1 - 0.4 - - - - - - -
04/08:00am 27.9 N 3 5 1015.8 - 0.4 - - - - - - -
04/07:30am 26.0 NNW 4 9 1015.8 - 0.4 - - - - - - -
04/07:00am 26.2 CALM 0 0 1015.6 - 0.4 - - - - - - -
04/06:30am 24.5 WSW 2 5 1015.5 - 0.4 - - - - - - -
04/06:00am 23.5 SW 3 6 1015.2 - 0.4 - - - - - - -
04/05:30am 23.2 WSW 4 6 1014.7 - 0.4 - - - - - - -
04/05:00am 23.6 W 4 6 1014.1 - 0.4 - - - - - - -
04/04:30am 23.9 WNW 5 7 1014.0 - 0.4 - - - - - - -
04/04:00am 23.9 NE 4 6 1014.1 - 0.4 - - - - - - -
04/03:30am 24.1 NNE 3 5 1013.9 - 0.4 - - - - - - -
04/03:00am 24.3 NNE 4 7 1013.9 - 0.4 - - - - - - -
04/02:30am 24.4 NE 16 26 1012.5 - 0.4 - - - - - - -
04/02:05am 24.2 ENE 21 31 1013.3 - 0.4 - - - - - - -
04/02:00am 24.2 ENE 21 29 1013.8 - 0.4 - - - - - - -
04/01:53am 24.1 ENE 19 25 1014.4 - 0.4 - - - - - - -
04/01:30am 23.9 E 16 22 1016.4 - 0.4 - - - - - - -
04/01:00am 24.4 SE 8 13 1018.0 - 0.0 - - - - - - -
04/12:30am 25.1 SE 12 21 1018.3 - 0.0 - - - - - - -
04/12:06am 25.5 ESE 16 26 1017.9 - 0.0 - - - - - - -
04/12:00am 25.4 ESE 15 22 1018.3 - 0.0 - - - - - - -
 
Date/Time
EST
Temp
°C
Wind Pressure Rain since
9am
mm
Weather Cloud Vis
km
Sea
Height
m
Swell
Dir  Spd
kts
Gust
kts
hPa Trend Height
m
Period
s
Dir
03/11:47pm 25.4 ESE 15 22 1018.2 - 0.0 - - - - - - -
03/11:30pm 24.9 NE 6 11 1016.8 - 0.0 - - - - - - -
03/11:00pm 24.8 NNE 6 11 1015.4 - 0.0 - - - - - - -
03/10:30pm 24.9 NNE 7 10 1015.4 - 0.0 - - - - - - -
03/10:00pm 24.8 NNE 6 9 1015.4 - 0.0 - - - - - - -
03/09:30pm 24.8 NNE 7 13 1014.9 - 0.0 - - - - - - -
03/09:00pm 24.8 NNE 6 9 1014.2 - 0.0 - - - - - - -
03/08:30pm 24.8 NNE 5 10 1014.0 - 0.0 - - - - - - -
03/08:00pm 24.9 NNE 5 9 1013.6 - 0.0 - - - - - - -
03/07:30pm 25.1 NNE 6 9 1013.6 - 0.0 - - - - - - -
03/07:00pm 25.2 NNE 6 9 1013.4 - 0.0 - - - - - - -
03/06:30pm 25.6 NNE 7 14 1013.4 - 0.0 - - - - - - -
03/06:00pm 26.0 NE 9 16 1013.1 - 0.0 - - - - - - -
03/05:30pm 26.6 NE 8 15 1012.8 - 0.0 - - - - - - -
03/05:00pm 26.9 NE 10 15 1012.5 - 0.0 - - - - - - -
03/04:30pm 28.2 NE 10 15 1012.4 - 0.0 - - - - - - -
03/04:00pm 28.8 NE 10 17 1012.2 - 0.0 - - - - - - -
03/03:30pm 29.7 NE 10 16 1012.2 - 0.0 - - - - - - -
03/03:00pm 30.3 NE 11 18 1012.7 - 0.0 - - - - - - -
03/02:30pm 30.4 NE 11 19 1013.0 - 0.0 - - - - - - -
03/02:00pm 30.9 NE 12 18 1013.2 - 0.0 - - - - - - -
03/01:30pm 31.6 NE 11 18 1013.4 - 0.0 - - - - - - -
03/01:00pm 32.2 NE 11 17 1013.7 - 0.0 - - - - - - -
03/12:30pm 31.7 NE 11 18 1013.8 - 0.0 - - - - - - -
03/12:00pm 31.9 NE 11 19 1014.0 - 0.0 - - - - - - -
03/11:30am 32.2 NE 11 16 1014.3 - 0.0 - - - - - - -
03/11:00am 31.7 NE 12 17 1014.4 - 0.0 - - - - - - -
03/10:30am 32.0 NE 10 17 1014.9 - 0.0 - - - - - - -
03/10:00am 32.4 NE 8 14 1015.2 - 0.0 - - - - - - -
03/09:30am 31.6 NE 9 15 1015.2 - 0.0 - - - - - - -
03/09:00am 32.0 NE 4 6 1015.2 - 0.0 - - - - - - -
03/08:30am 29.0 NW 3 5 1015.3 - 0.0 - - - - - - -
03/08:00am 27.3 NW 4 7 1015.2 - 0.0 - - - - - - -
03/07:30am 29.0 N 3 7 1015.1 - 0.0 - - - - - - -
03/07:00am 27.1 N 3 7 1014.8 - 0.0 - - - - - - -
03/06:30am 25.9 WNW 4 6 1014.5 - 0.0 - - - - - - -
03/06:00am 24.9 NW 2 5 1014.1 - 0.0 - - - - - - -
03/05:30am 23.8 W 3 5 1013.8 - 0.0 - - - - - - -
03/05:00am 23.6 N 5 7 1012.6 - 0.0 - - - - - - -
03/04:30am 23.9 N 5 10 1012.5 - 0.0 - - - - - - -
03/04:00am 24.1 N 5 8 1012.3 - 0.0 - - - - - - -
03/03:30am 24.0 N 5 7 1012.1 - 0.0 - - - - - - -
03/03:00am 24.0 N 4 7 1012.0 - 0.0 - - - - - - -
03/02:30am 24.0 N 4 7 1011.9 - 0.0 - - - - - - -
03/02:00am 24.1 NNE 5 9 1012.1 - 0.0 - - - - - - -
03/01:30am 24.3 N 5 8 1012.2 - 0.0 - - - - - - -
03/01:00am 24.4 N 5 8 1012.4 - 0.0 - - - - - - -
03/12:30am 24.5 N 5 9 1012.7 - 0.0 - - - - - - -
03/12:00am 24.7 N 5 9 1012.9 - 0.0 - - - - - - -
 
Date/Time
EST
Temp
°C
Wind Pressure Rain since
9am
mm
Weather Cloud Vis
km
Sea
Height
m
Swell
Dir  Spd
kts
Gust
kts
hPa Trend Height
m
Period
s
Dir
02/11:30pm 24.9 N 4 6 1013.1 - 0.0 - - - - - - -
02/11:00pm 24.9 N 6 10 1013.2 - 0.0 - - - - - - -
02/10:30pm 25.0 N 5 8 1013.3 - 0.0 - - - - - - -
02/10:00pm 25.2 NNW 5 8 1013.2 - 0.0 - - - - - - -
02/09:30pm 25.3 N 5 9 1012.9 - 0.0 - - - - - - -
02/09:00pm 25.2 NNE 5 10 1012.9 - 0.0 - - - - - - -
02/08:30pm 25.3 N 7 12 1012.7 - 0.0 - - - - - - -
02/08:00pm 25.4 NNE 6 10 1012.5 - 0.0 - - - - - - -
02/07:30pm 25.5 NNE 7 11 1012.3 - 0.0 - - - - - - -
02/07:00pm 25.8 NNE 7 11 1011.9 - 0.0 - - - - - - -
02/06:30pm 26.2 NE 7 12 1011.6 - 0.0 - - - - - - -
02/06:00pm 27.2 NE 7 11 1011.2 - 0.0 - - - - - - -
02/05:30pm 28.0 NNE 6 11 1010.7 - 0.0 - - - - - - -
02/05:00pm 28.5 NNE 7 13 1010.4 - 0.0 - - - - - - -
02/04:30pm 29.2 NNE 9 16 1010.3 - 0.0 - - - - - - -
02/04:00pm 30.2 NNE 8 15 1010.1 - 0.0 - - - - - - -
02/03:30pm 30.1 NE 11 16 1010.0 - 0.0 - - - - - - -
02/03:00pm 30.3 NE 11 19 1010.1 - 0.0 - - - - - - -
02/02:30pm 30.6 NE 13 21 1010.1 - 0.0 - - - - - - -
02/02:00pm 30.8 NE 13 20 1010.3 - 0.0 - - - - - - -
02/01:30pm 30.7 NE 12 19 1010.7 - 0.0 - - - - - - -
02/01:00pm 30.9 NE 13 21 1011.1 - 0.0 - - - - - - -
02/12:30pm 31.0 NE 13 21 1011.4 - 0.0 - - - - - - -
02/12:00pm 31.3 NE 14 21 1011.7 - 0.0 - - - - - - -
02/11:30am 31.4 NE 11 18 1012.3 - 0.0 - - - - - - -
02/11:00am 31.9 NE 10 16 1012.8 - 0.0 - - - - - - -
02/10:30am 31.9 NE 10 16 1013.0 - 0.0 - - - - - - -
02/10:00am 32.1 NE 9 16 1013.2 - 0.0 - - - - - - -
02/09:30am 31.3 NE 10 16 1013.5 - 0.0 - - - - - - -
02/09:00am 31.3 NE 8 13 1013.6 - 0.0 - - - - - - -
02/08:30am 30.3 NNE 5 8 1013.5 - 0.0 - - - - - - -
02/08:00am 29.7 NNE 6 9 1013.4 - 0.0 - - - - - - -
02/07:30am 27.3 N 5 9 1013.5 - 0.0 - - - - - - -
02/07:00am 27.0 NNE 4 9 1013.2 - 0.0 - - - - - - -
02/06:30am 25.9 NNE 4 7 1013.0 - 0.0 - - - - - - -
02/06:00am 24.6 N 4 7 1012.7 - 0.0 - - - - - - -
02/05:30am 23.7 N 4 8 1012.3 - 0.0 - - - - - - -
02/05:00am 23.4 N 4 7 1011.9 - 0.0 - - - - - - -
02/04:30am 23.3 N 4 7 1011.5 - 0.0 - - - - - - -
02/04:00am 23.3 N 4 6 1011.3 - 0.0 - - - - - - -
02/03:30am 23.5 N 5 6 1011.0 - 0.0 - - - - - - -
02/03:00am 23.6 NNE 6 9 1010.8 - 0.0 - - - - - - -
02/02:30am 23.3 NNE 5 9 1010.8 - 0.0 - - - - - - -
02/02:00am 23.3 NE 4 6 1010.8 - 0.0 - - - - - - -
02/01:30am 23.5 NE 4 5 1010.8 - 0.0 - - - - - - -
02/01:00am 24.0 N 5 8 1010.6 - 0.0 - - - - - - -
02/12:30am 24.0 N 5 8 1010.8 - 0.0 - - - - - - -
02/12:00am 24.0 NNE 6 9 1010.9 - 0.0 - - - - - - -
 
Date/Time
EST
Temp
°C
Wind Pressure Rain since
9am
mm
Weather Cloud Vis
km
Sea
Height
m
Swell
Dir  Spd
kts
Gust
kts
hPa Trend Height
m
Period
s
Dir
01/11:30pm 24.0 NNE 5 11 1011.1 - 0.0 - - - - - - -
01/11:00pm 24.0 N 5 8 1011.1 - 0.0 - - - - - - -
01/10:30pm 24.1 NNE 4 8 1011.2 - 0.0 - - - - - - -
01/10:00pm 24.3 NNE 5 9 1011.3 - 0.0 - - - - - - -
01/09:30pm 24.4 NNE 6 10 1011.1 - 0.0 - - - - - - -
01/09:00pm 24.5 NNE 5 9 1011.0 - 0.0 - - - - - - -
01/08:30pm 24.6 NNE 6 10 1010.5 - 0.0 - - - - - - -
01/08:00pm 24.7 NNE 7 12 1010.5 - 0.0 - - - - - - -
01/07:30pm 24.8 NNE 7 13 1010.3 - 0.0 - - - - - - -
01/07:00pm 25.0 NNE 7 16 1010.2 - 0.0 - - - - - - -
01/06:30pm 25.3 NNE 8 13 1009.8 - 0.0 - - - - - - -
01/06:00pm 25.7 NNE 9 16 1009.2 - 0.0 - - - - - - -
01/05:30pm 26.4 NNE 8 14 1008.5 - 0.0 - - - - - - -
01/05:00pm 26.9 NNE 9 15 1008.3 - 0.0 - - - - - - -
01/04:30pm 28.2 NE 7 13 1008.3 - 0.0 - - - - - - -
01/04:00pm 28.2 NE 11 17 1008.5 - 0.0 - - - - - - -
01/03:30pm 28.9 NE 11 17 1008.5 - 0.0 - - - - - - -
01/03:00pm 30.1 NE 9 18 1008.9 - 0.0 - - - - - - -
01/02:30pm 29.8 NE 11 17 1009.1 - 0.0 - - - - - - -
01/02:00pm 30.3 NE 10 16 1009.5 - 0.0 - - - - - - -
01/01:30pm 31.0 NE 10 17 1009.8 - 0.0 - - - - - - -
01/01:00pm 30.8 NE 10 16 1010.2 - 0.0 - - - - - - -
01/12:30pm 30.5 NE 11 18 1010.7 - 0.0 - - - - - - -
01/12:00pm 31.4 NE 10 14 1011.3 - 0.0 - - - - - - -

Other Formats:

Comma delimited format used in spreadsheet applications
http://www.bom.gov.au/fwo/IDQ60701/IDQ60701.94380.axf

JavaScript Object Notation format (JSON) in row-major order
http://www.bom.gov.au/fwo/IDQ60701/IDQ60701.94380.json